Time;durP1;ratioP1;P1;durP2;ratioP2;P2;SDS_P1;SDS_P2;PMS_P1;PMS_P2;Temp;Humidity;BMP_temperature;BMP_pressure;BME280_temperature;BME280_humidity;BME280_pressure;Samples;Min_cycle;Max_cycle;Signal;HPM_P1;HPM_P2
2022/03/28 00:02:05;;;;;;;18.35;9.48;;;;;;;;;;4955245;28;100271;-73
2022/03/28 00:04:32;;;;;;;21.73;9.98;;;;;;;;;;4972832;28;100687;-74
2022/03/28 00:06:59;;;;;;;21.23;9.82;;;;;;;;;;4973655;28;100094;-73
2022/03/28 00:09:26;;;;;;;21.48;10.15;;;;;;;;;;4955125;28;100103;-73
2022/03/28 00:11:53;;;;;;;18.42;9.27;;;;;;;;;;4973275;28;100478;-73
2022/03/28 00:14:20;;;;;;;17.80;9.70;;;;;;;;;;4973122;28;100880;-72
2022/03/28 00:16:46;;;;;;;20.27;9.23;;;;;;;;;;4973676;28;100130;-72
2022/03/28 00:19:14;;;;;;;17.00;9.20;;;;;;;;;;4956408;28;100146;-73
2022/03/28 00:21:41;;;;;;;15.50;8.95;;;;;;;;;;4954105;28;101473;-73
2022/03/28 00:24:07;;;;;;;23.02;10.48;;;;;;;;;;4972704;28;101464;-72
2022/03/28 00:26:35;;;;;;;23.10;9.88;;;;;;;;;;4970605;28;100199;-74
2022/03/28 00:29:02;;;;;;;20.33;9.60;;;;;;;;;;4956537;28;100120;-73
2022/03/28 00:31:29;;;;;;;21.60;10.05;;;;;;;;;;4952862;28;100256;-73
2022/03/28 00:33:56;;;;;;;19.55;9.27;;;;;;;;;;4955643;28;100663;-73
2022/03/28 00:36:23;;;;;;;18.75;9.88;;;;;;;;;;4970339;28;100091;-73
2022/03/28 00:38:51;;;;;;;19.05;9.55;;;;;;;;;;4956226;28;100236;-72
2022/03/28 00:41:18;;;;;;;19.70;10.25;;;;;;;;;;4972916;28;100304;-72
2022/03/28 00:43:55;;;;;;;18.00;9.38;;;;;;;;;;4954561;28;102971;-73
2022/03/28 00:46:22;;;;;;;19.27;9.82;;;;;;;;;;4955689;28;100055;-73
2022/03/28 00:48:50;;;;;;;22.50;10.80;;;;;;;;;;4940268;28;100046;-73
2022/03/28 00:51:17;;;;;;;19.52;10.27;;;;;;;;;;4939177;28;100239;-73
2022/03/28 00:53:45;;;;;;;18.33;10.35;;;;;;;;;;4955114;28;100627;-74
2022/03/28 00:56:12;;;;;;;18.27;8.80;;;;;;;;;;4954671;28;100193;-73
2022/03/28 00:58:39;;;;;;;21.10;8.30;;;;;;;;;;4906405;28;102183;-73
2022/03/28 01:01:09;;;;;;;18.50;8.90;;;;;;;;;;4972461;28;100287;-73
2022/03/28 01:03:36;;;;;;;21.17;8.90;;;;;;;;;;4971622;28;101220;-72
2022/03/28 01:06:03;;;;;;;15.68;8.18;;;;;;;;;;4955042;28;100590;-72
2022/03/28 01:08:31;;;;;;;18.90;8.25;;;;;;;;;;4939008;28;100226;-73
2022/03/28 01:10:58;;;;;;;18.52;8.80;;;;;;;;;;4954885;28;100303;-72
2022/03/28 01:13:26;;;;;;;18.52;8.38;;;;;;;;;;4955356;28;100890;-73
2022/03/28 01:15:53;;;;;;;17.45;7.95;;;;;;;;;;4955883;28;100195;-72
2022/03/28 01:18:20;;;;;;;15.10;8.00;;;;;;;;;;4972673;28;99962;-72
2022/03/28 01:20:47;;;;;;;17.08;8.07;;;;;;;;;;4954113;28;100944;-74
2022/03/28 01:23:13;;;;;;;16.38;7.82;;;;;;;;;;4971621;28;100536;-73
2022/03/28 01:25:42;;;;;;;17.10;7.70;;;;;;;;;;4938893;28;100189;-73
2022/03/28 01:28:09;;;;;;;18.63;8.73;;;;;;;;;;4955638;28;101310;-72
2022/03/28 01:30:36;;;;;;;22.77;8.32;;;;;;;;;;4954861;28;100129;-72
2022/03/28 01:33:03;;;;;;;17.67;7.95;;;;;;;;;;4954276;28;100623;-73
2022/03/28 01:35:35;;;;;;;16.73;7.93;;;;;;;;;;4954594;28;100485;-73
2022/03/28 01:38:04;;;;;;;17.85;8.20;;;;;;;;;;4955769;28;100120;-72
2022/03/28 01:40:32;;;;;;;15.68;8.15;;;;;;;;;;4954507;28;100324;-73
2022/03/28 01:42:58;;;;;;;18.23;7.45;;;;;;;;;;4936742;28;101795;-72
2022/03/28 01:45:25;;;;;;;17.75;7.90;;;;;;;;;;4968206;28;102935;-73
2022/03/28 01:47:53;;;;;;;17.02;7.65;;;;;;;;;;4952913;28;100113;-73
2022/03/28 01:50:20;;;;;;;18.83;7.60;;;;;;;;;;4936860;28;100406;-73
2022/03/28 01:52:47;;;;;;;16.00;7.70;;;;;;;;;;4953294;28;100758;-73
2022/03/28 01:55:14;;;;;;;18.80;7.50;;;;;;;;;;4936590;28;100210;-73
2022/03/28 01:57:41;;;;;;;15.80;7.25;;;;;;;;;;4953890;28;100682;-72
2022/03/28 02:00:12;;;;;;;23.33;7.85;;;;;;;;;;4953561;28;100282;-72
2022/03/28 02:02:38;;;;;;;17.85;7.43;;;;;;;;;;4952957;28;101291;-72
2022/03/28 02:05:07;;;;;;;15.30;7.15;;;;;;;;;;4953123;28;100923;-73
2022/03/28 02:07:35;;;;;;;14.20;7.45;;;;;;;;;;4953183;28;100161;-72
2022/03/28 02:10:02;;;;;;;15.13;7.05;;;;;;;;;;4936474;28;100355;-72
2022/03/28 02:12:29;;;;;;;14.13;6.97;;;;;;;;;;4953127;28;100694;-71
2022/03/28 02:14:56;;;;;;;17.73;7.32;;;;;;;;;;4954519;28;100367;-71
2022/03/28 02:17:23;;;;;;;15.38;7.18;;;;;;;;;;4954344;28;100133;-72
2022/03/28 02:19:49;;;;;;;19.58;7.00;;;;;;;;;;4970316;28;100337;-72
2022/03/28 02:22:16;;;;;;;13.18;7.18;;;;;;;;;;4971407;28;100539;-71
2022/03/28 02:24:43;;;;;;;17.60;7.10;;;;;;;;;;4952393;28;100361;-72
2022/03/28 02:27:10;;;;;;;16.45;7.20;;;;;;;;;;4987311;28;100132;-71
2022/03/28 02:29:36;;;;;;;15.18;6.95;;;;;;;;;;4951856;28;103158;-73
2022/03/28 02:32:04;;;;;;;16.85;7.55;;;;;;;;;;4953090;28;103651;-71
2022/03/28 02:34:30;;;;;;;13.80;6.60;;;;;;;;;;4973634;28;100518;-71
2022/03/28 02:36:57;;;;;;;13.95;6.93;;;;;;;;;;4958253;28;100063;-70
2022/03/28 02:39:25;;;;;;;16.17;6.85;;;;;;;;;;4974614;28;100350;-72
2022/03/28 02:41:53;;;;;;;17.02;6.88;;;;;;;;;;4957937;28;100674;-72
2022/03/28 02:44:20;;;;;;;13.82;7.25;;;;;;;;;;4975726;28;100108;-71
2022/03/28 02:46:47;;;;;;;19.25;6.95;;;;;;;;;;4975372;28;99874;-71
2022/03/28 02:49:14;;;;;;;14.60;7.18;;;;;;;;;;4957143;28;100484;-72
2022/03/28 02:51:41;;;;;;;20.70;7.53;;;;;;;;;;4941799;28;100712;-72
2022/03/28 02:54:07;;;;;;;16.52;7.40;;;;;;;;;;4975268;28;100207;-72
2022/03/28 02:56:34;;;;;;;22.02;7.68;;;;;;;;;;4975042;28;100000;-72
2022/03/28 02:59:01;;;;;;;16.55;7.38;;;;;;;;;;4974006;28;100134;-71
2022/03/28 03:01:28;;;;;;;17.00;7.13;;;;;;;;;;4957511;28;100563;-72
2022/03/28 03:03:55;;;;;;;14.32;7.10;;;;;;;;;;4957733;28;100305;-71
2022/03/28 03:06:22;;;;;;;13.27;6.78;;;;;;;;;;4957419;28;100198;-72
2022/03/28 03:08:50;;;;;;;20.20;7.85;;;;;;;;;;4974236;28;100239;-72
2022/03/28 03:11:17;;;;;;;20.88;7.40;;;;;;;;;;4974697;28;100589;-72
2022/03/28 03:13:44;;;;;;;15.05;6.90;;;;;;;;;;4957346;28;100116;-72
2022/03/28 03:16:11;;;;;;;16.52;6.90;;;;;;;;;;4958014;28;100053;-72
2022/03/28 03:18:37;;;;;;;14.68;7.15;;;;;;;;;;4974544;28;100407;-72
2022/03/28 03:21:05;;;;;;;15.55;6.82;;;;;;;;;;4956846;28;100720;-73
2022/03/28 03:23:32;;;;;;;13.13;6.85;;;;;;;;;;4973060;28;100057;-72
2022/03/28 03:25:58;;;;;;;12.43;5.97;;;;;;;;;;4956556;28;100190;-71
2022/03/28 03:28:25;;;;;;;16.50;6.82;;;;;;;;;;4957096;28;100805;-72
2022/03/28 03:30:52;;;;;;;15.13;6.95;;;;;;;;;;4973924;28;100136;-72
2022/03/28 03:33:19;;;;;;;12.60;6.78;;;;;;;;;;4974601;28;100171;-72
2022/03/28 03:35:46;;;;;;;14.88;6.68;;;;;;;;;;4974978;28;99989;-71
2022/03/28 03:38:12;;;;;;;13.15;6.78;;;;;;;;;;4956481;28;100291;-71
2022/03/28 03:40:39;;;;;;;14.50;6.95;;;;;;;;;;4973658;28;100552;-71
2022/03/28 03:43:07;;;;;;;12.68;6.70;;;;;;;;;;4957333;28;100077;-72
2022/03/28 03:45:34;;;;;;;15.48;7.13;;;;;;;;;;4956067;28;100020;-71
2022/03/28 03:48:01;;;;;;;14.90;7.68;;;;;;;;;;4956407;28;100416;-71
2022/03/28 03:50:28;;;;;;;14.93;7.47;;;;;;;;;;4956521;28;100552;-72
2022/03/28 03:52:55;;;;;;;16.58;7.45;;;;;;;;;;4974607;28;99936;-71
2022/03/28 03:55:22;;;;;;;16.08;7.00;;;;;;;;;;4957322;28;99955;-72
2022/03/28 03:57:49;;;;;;;14.70;7.88;;;;;;;;;;4956254;28;101486;-70
2022/03/28 04:00:16;;;;;;;13.73;7.75;;;;;;;;;;4939973;28;100797;-72
2022/03/28 04:02:43;;;;;;;17.40;7.78;;;;;;;;;;4974023;28;99970;-72
2022/03/28 04:05:10;;;;;;;13.77;6.75;;;;;;;;;;4957121;28;100005;-72
2022/03/28 04:07:37;;;;;;;13.43;6.97;;;;;;;;;;4956594;28;102696;-72
2022/03/28 04:10:04;;;;;;;15.43;7.40;;;;;;;;;;4940397;28;100676;-72
2022/03/28 04:12:31;;;;;;;12.90;6.55;;;;;;;;;;4939858;28;100146;-72
2022/03/28 04:14:59;;;;;;;13.32;6.85;;;;;;;;;;4940512;28;100144;-73
2022/03/28 04:17:28;;;;;;;13.98;6.82;;;;;;;;;;4973880;28;100268;-73
2022/03/28 04:19:56;;;;;;;14.95;6.28;;;;;;;;;;4940862;28;100696;-72
2022/03/28 04:22:23;;;;;;;11.70;6.05;;;;;;;;;;4924473;28;100063;-72
2022/03/28 04:24:50;;;;;;;10.93;5.68;;;;;;;;;;4956790;28;100518;-72
2022/03/28 04:27:16;;;;;;;14.35;6.63;;;;;;;;;;4973511;28;101587;-73
2022/03/28 04:29:43;;;;;;;12.63;6.20;;;;;;;;;;4973494;28;101058;-73
2022/03/28 04:32:11;;;;;;;16.17;6.10;;;;;;;;;;4973310;28;100035;-73
2022/03/28 04:34:38;;;;;;;11.00;6.10;;;;;;;;;;4971859;28;100142;-73
2022/03/28 04:37:05;;;;;;;13.70;6.32;;;;;;;;;;4938494;28;100129;-73
2022/03/28 04:39:32;;;;;;;16.13;6.78;;;;;;;;;;4972141;28;100775;-73
2022/03/28 04:41:59;;;;;;;11.65;6.30;;;;;;;;;;4939139;28;100277;-73
2022/03/28 04:44:25;;;;;;;13.63;6.32;;;;;;;;;;4972138;28;100136;-73
2022/03/28 04:46:52;;;;;;;12.95;6.45;;;;;;;;;;4954520;28;100679;-73
2022/03/28 04:49:19;;;;;;;15.23;6.25;;;;;;;;;;4954854;28;100573;-73
2022/03/28 04:51:46;;;;;;;15.90;6.00;;;;;;;;;;4954439;28;100243;-72
2022/03/28 04:54:13;;;;;;;13.50;6.10;;;;;;;;;;4955331;28;100128;-72
2022/03/28 04:56:40;;;;;;;12.90;6.05;;;;;;;;;;4970760;28;100210;-72
2022/03/28 04:59:06;;;;;;;11.43;6.22;;;;;;;;;;4971640;28;100707;-73
2022/03/28 05:01:33;;;;;;;13.68;6.78;;;;;;;;;;4955010;28;100171;-74
2022/03/28 05:04:00;;;;;;;14.52;6.13;;;;;;;;;;4939456;28;100227;-73
2022/03/28 05:06:27;;;;;;;14.88;6.32;;;;;;;;;;4955964;28;100336;-72
2022/03/28 05:08:54;;;;;;;12.68;6.40;;;;;;;;;;4972650;28;100537;-72
2022/03/28 05:11:22;;;;;;;15.32;6.65;;;;;;;;;;4955305;28;100415;-74
2022/03/28 05:13:49;;;;;;;17.73;6.43;;;;;;;;;;4956311;28;100163;-72
2022/03/28 05:16:17;;;;;;;14.05;6.68;;;;;;;;;;4922112;28;101577;-72
2022/03/28 05:18:43;;;;;;;15.15;8.10;;;;;;;;;;4955952;28;101885;-72
2022/03/28 05:21:10;;;;;;;13.55;7.18;;;;;;;;;;4973228;28;100194;-73
2022/03/28 05:24:07;;;;;;;13.00;6.95;;;;;;;;;;4955069;28;100246;-74
2022/03/28 05:26:35;;;;;;;20.25;7.63;;;;;;;;;;4967769;28;100542;-72
2022/03/28 05:29:02;;;;;;;16.00;7.90;;;;;;;;;;4970031;28;101249;-73
2022/03/28 05:31:30;;;;;;;20.30;10.80;;;;;;;;;;4971290;28;100145;-73
2022/03/28 05:33:56;;;;;;;16.70;7.50;;;;;;;;;;4953472;28;100253;-71
2022/03/28 05:36:23;;;;;;;18.50;7.85;;;;;;;;;;4953907;28;100485;-73
2022/03/28 05:38:50;;;;;;;21.83;8.30;;;;;;;;;;4947647;28;101783;-72
2022/03/28 05:41:17;;;;;;;28.10;9.13;;;;;;;;;;4955897;28;99981;-73
2022/03/28 05:43:44;;;;;;;21.35;8.48;;;;;;;;;;4956211;28;100089;-72
2022/03/28 05:46:11;;;;;;;17.70;7.72;;;;;;;;;;4972325;28;100850;-72
2022/03/28 05:48:38;;;;;;;14.57;7.25;;;;;;;;;;4978135;28;103357;-72
2022/03/28 05:51:05;;;;;;;15.13;7.40;;;;;;;;;;4971912;28;100007;-72
2022/03/28 05:53:32;;;;;;;13.88;6.43;;;;;;;;;;4970834;28;100300;-72
2022/03/28 05:55:59;;;;;;;14.52;6.70;;;;;;;;;;4954345;28;100216;-72
2022/03/28 05:58:26;;;;;;;10.75;6.20;;;;;;;;;;4955129;28;100583;-72
2022/03/28 06:00:53;;;;;;;15.68;6.13;;;;;;;;;;4971091;28;100041;-72
2022/03/28 06:03:20;;;;;;;16.92;6.97;;;;;;;;;;4953838;28;100174;-70
2022/03/28 06:06:07;;;;;;;22.27;7.10;;;;;;;;;;4955595;28;100450;-71
2022/03/28 06:08:33;;;;;;;14.93;7.15;;;;;;;;;;4954415;28;100637;-71
2022/03/28 06:11:03;;;;;;;13.98;6.60;;;;;;;;;;4954880;28;100178;-71
2022/03/28 06:13:30;;;;;;;53.67;8.52;;;;;;;;;;4954927;28;100101;-71
2022/03/28 06:15:58;;;;;;;20.15;7.80;;;;;;;;;;4954011;28;101938;-71
2022/03/28 06:18:25;;;;;;;16.67;7.72;;;;;;;;;;4922192;28;103474;-72
2022/03/28 06:20:52;;;;;;;17.30;8.43;;;;;;;;;;4954650;28;100222;-71
2022/03/28 06:23:19;;;;;;;27.92;8.57;;;;;;;;;;4972264;28;100108;-72
2022/03/28 06:25:46;;;;;;;21.95;8.55;;;;;;;;;;4954567;28;100390;-71
2022/03/28 06:28:13;;;;;;;19.20;7.50;;;;;;;;;;4937683;28;100916;-72
2022/03/28 06:30:40;;;;;;;15.38;8.20;;;;;;;;;;4938115;28;100213;-72
2022/03/28 06:33:07;;;;;;;18.60;7.18;;;;;;;;;;4954770;28;100239;-71
2022/03/28 06:35:34;;;;;;;16.10;7.75;;;;;;;;;;4953502;28;100365;-71
2022/03/28 06:38:01;;;;;;;16.85;7.65;;;;;;;;;;4953938;28;101833;-71
2022/03/28 06:40:28;;;;;;;16.35;8.32;;;;;;;;;;4971376;28;99944;-72
2022/03/28 06:42:55;;;;;;;17.70;8.10;;;;;;;;;;4971759;28;100034;-72
2022/03/28 06:45:22;;;;;;;20.98;7.38;;;;;;;;;;4953510;28;100358;-72
2022/03/28 06:47:51;;;;;;;18.35;7.20;;;;;;;;;;4969781;28;100647;-72
2022/03/28 06:50:19;;;;;;;17.00;6.78;;;;;;;;;;4971541;28;100210;-72
2022/03/28 06:52:46;;;;;;;17.58;8.35;;;;;;;;;;4971837;28;100080;-72
2022/03/28 06:55:13;;;;;;;17.92;7.68;;;;;;;;;;4953137;28;100777;-72
2022/03/28 06:57:40;;;;;;;22.60;8.30;;;;;;;;;;4971646;28;100638;-72
2022/03/28 07:00:10;;;;;;;16.95;7.80;;;;;;;;;;4936020;28;100113;-73
2022/03/28 07:02:37;;;;;;;16.33;8.00;;;;;;;;;;4953573;28;100063;-73
2022/03/28 07:05:05;;;;;;;15.77;8.00;;;;;;;;;;4953741;28;100325;-72
2022/03/28 07:07:43;;;;;;;20.02;8.43;;;;;;;;;;4937650;28;100586;-72
2022/03/28 07:10:11;;;;;;;14.90;6.78;;;;;;;;;;4971428;28;100186;-72
2022/03/28 07:12:38;;;;;;;14.43;7.28;;;;;;;;;;4938109;28;100064;-71
2022/03/28 07:15:05;;;;;;;16.42;7.10;;;;;;;;;;4955382;28;101522;-72
2022/03/28 07:17:52;;;;;;;12.68;6.53;;;;;;;;;;4936639;28;100008;-72
2022/03/28 07:20:23;;;;;;;14.35;6.70;;;;;;;;;;4957866;28;100226;-72
2022/03/28 07:22:51;;;;;;;16.52;6.43;;;;;;;;;;4941311;28;100304;-72
2022/03/28 07:25:18;;;;;;;15.05;7.28;;;;;;;;;;4970373;28;100468;-72
2022/03/28 07:27:45;;;;;;;13.60;6.85;;;;;;;;;;4951838;28;103582;-72
2022/03/28 07:30:20;;;;;;;17.23;6.57;;;;;;;;;;4974067;28;100133;-72
2022/03/28 07:32:47;;;;;;;15.95;6.85;;;;;;;;;;4942346;28;100189;-72
2022/03/28 07:35:14;;;;;;;14.25;5.82;;;;;;;;;;4955656;28;100422;-72
2022/03/28 07:37:41;;;;;;;14.30;5.68;;;;;;;;;;4956280;28;100921;-72
2022/03/28 07:40:11;;;;;;;15.88;5.18;;;;;;;;;;4956834;28;100166;-72
2022/03/28 07:42:40;;;;;;;12.80;5.60;;;;;;;;;;4956795;28;100629;-73
2022/03/28 07:45:08;;;;;;;12.88;5.50;;;;;;;;;;4956612;28;105153;-72
2022/03/28 07:47:36;;;;;;;13.70;5.07;;;;;;;;;;4944908;28;102689;-72
2022/03/28 07:50:03;;;;;;;8.77;4.28;;;;;;;;;;4940818;28;100344;-71
2022/03/28 07:52:31;;;;;;;8.70;4.35;;;;;;;;;;4956331;28;100088;-72
2022/03/28 07:54:58;;;;;;;11.32;4.50;;;;;;;;;;4972418;28;101408;-72
2022/03/28 07:57:25;;;;;;;8.10;4.63;;;;;;;;;;4973404;28;100639;-72
2022/03/28 07:59:52;;;;;;;11.95;4.28;;;;;;;;;;4951026;28;100193;-73
2022/03/28 08:02:39;;;;;;;21.88;5.03;;;;;;;;;;4972961;28;100176;-73
2022/03/28 08:05:07;;;;;;;11.30;4.32;;;;;;;;;;4954842;28;100827;-73
2022/03/28 08:07:34;;;;;;;11.32;4.60;;;;;;;;;;4969101;28;100780;-73
2022/03/28 08:10:02;;;;;;;10.95;4.38;;;;;;;;;;4954797;28;100262;-73
2022/03/28 08:12:29;;;;;;;10.07;4.53;;;;;;;;;;4955700;28;100182;-73
2022/03/28 08:14:56;;;;;;;13.07;4.40;;;;;;;;;;4971761;28;100873;-72
2022/03/28 08:17:23;;;;;;;10.63;4.93;;;;;;;;;;4937149;28;101610;-72
2022/03/28 08:19:50;;;;;;;11.30;4.97;;;;;;;;;;4954819;28;100318;-72
2022/03/28 08:22:17;;;;;;;9.13;4.43;;;;;;;;;;4938408;28;100294;-72
2022/03/28 08:24:44;;;;;;;12.80;4.90;;;;;;;;;;4954205;28;100500;-72
2022/03/28 08:27:11;;;;;;;10.20;5.13;;;;;;;;;;4972200;28;100770;-72
2022/03/28 08:29:38;;;;;;;7.65;4.03;;;;;;;;;;4972298;28;100162;-72
2022/03/28 08:32:05;;;;;;;10.88;4.68;;;;;;;;;;4972509;28;100137;-73
2022/03/28 08:34:36;;;;;;;9.18;4.60;;;;;;;;;;4970467;28;101613;-73
2022/03/28 08:37:03;;;;;;;8.57;4.55;;;;;;;;;;4970595;28;100726;-72
2022/03/28 08:39:30;;;;;;;10.55;5.03;;;;;;;;;;4937433;28;100236;-72
2022/03/28 08:41:58;;;;;;;8.68;4.88;;;;;;;;;;4922895;28;100135;-73
2022/03/28 08:44:26;;;;;;;16.25;5.22;;;;;;;;;;4950685;28;100428;-74
2022/03/28 08:46:55;;;;;;;9.75;4.65;;;;;;;;;;4971753;28;100690;-72
2022/03/28 08:49:22;;;;;;;8.68;4.70;;;;;;;;;;4971895;28;100522;-72
2022/03/28 08:51:49;;;;;;;9.15;4.80;;;;;;;;;;4953483;28;100291;-71
2022/03/28 08:54:16;;;;;;;8.95;5.03;;;;;;;;;;4920909;28;100450;-73
2022/03/28 08:56:43;;;;;;;9.63;4.78;;;;;;;;;;4969021;28;100763;-72
2022/03/28 08:59:10;;;;;;;11.48;4.53;;;;;;;;;;4970765;28;100609;-73
2022/03/28 09:01:37;;;;;;;10.25;5.07;;;;;;;;;;4969002;28;100652;-72
2022/03/28 09:04:08;;;;;;;10.40;4.43;;;;;;;;;;4951519;28;100578;-71
2022/03/28 09:06:39;;;;;;;8.60;4.40;;;;;;;;;;4937332;28;101192;-72
2022/03/28 09:09:12;;;;;;;9.73;4.60;;;;;;;;;;4970965;28;100081;-73
2022/03/28 09:11:46;;;;;;;8.00;4.50;;;;;;;;;;4971237;28;100240;-72
2022/03/28 09:14:33;;;;;;;;;;;;;;;;;;4971183;28;100494;-71
2022/03/28 09:17:02;;;;;;;8.55;4.57;;;;;;;;;;4985267;28;101944;-71
2022/03/28 09:19:53;;;;;;;8.52;4.55;;;;;;;;;;4971727;28;100181;-71
2022/03/28 09:22:24;;;;;;;9.17;5.33;;;;;;;;;;4925353;28;100964;-73
2022/03/28 09:24:57;;;;;;;6.63;4.50;;;;;;;;;;4953768;28;100580;-71
2022/03/28 09:27:26;;;;;;;8.10;4.43;;;;;;;;;;4938007;28;100816;-72
2022/03/28 09:30:05;;;;;;;8.07;4.35;;;;;;;;;;4970119;28;100153;-71
2022/03/28 09:32:40;;;;;;;10.38;5.25;;;;;;;;;;4954164;28;100180;-71
2022/03/28 09:35:08;;;;;;;14.00;6.03;;;;;;;;;;4960219;28;100292;-71
2022/03/28 09:37:51;;;;;;;8.13;4.63;;;;;;;;;;4953556;28;101831;-73
2022/03/28 09:40:35;;;;;;;8.60;4.45;;;;;;;;;;4956379;28;100587;-72
2022/03/28 09:43:16;;;;;;;8.45;4.32;;;;;;;;;;4953302;28;100253;-72
2022/03/28 09:45:50;;;;;;;8.13;4.45;;;;;;;;;;4951932;28;100276;-72
2022/03/28 09:48:19;;;;;;;6.88;4.57;;;;;;;;;;4938903;28;101381;-72
2022/03/28 09:51:00;;;;;;;8.55;4.97;;;;;;;;;;4922779;28;100149;-72
2022/03/28 09:53:31;;;;;;;10.15;5.50;;;;;;;;;;4972495;28;100181;-72
2022/03/28 09:56:03;;;;;;;10.27;5.18;;;;;;;;;;4973909;28;100253;-72
2022/03/28 09:58:36;;;;;;;11.40;5.10;;;;;;;;;;4937916;28;103047;-74
2022/03/28 10:01:12;;;;;;;11.13;5.20;;;;;;;;;;4973875;28;100594;-72
2022/03/28 10:03:47;;;;;;;7.95;4.85;;;;;;;;;;4971709;28;100189;-72
2022/03/28 10:06:14;;;;;;;11.43;5.20;;;;;;;;;;4954325;28;100472;-72
2022/03/28 10:08:42;;;;;;;17.50;4.97;;;;;;;;;;4953309;28;101217;-72
2022/03/28 10:11:10;;;;;;;21.23;5.40;;;;;;;;;;4939786;28;100122;-72
2022/03/28 10:13:37;;;;;;;10.02;5.25;;;;;;;;;;4961104;28;100165;-72
2022/03/28 10:16:07;;;;;;;13.30;5.47;;;;;;;;;;4955746;28;100890;-72
2022/03/28 10:18:36;;;;;;;9.65;4.90;;;;;;;;;;4938268;28;100741;-72
2022/03/28 10:21:08;;;;;;;16.27;5.82;;;;;;;;;;4971588;28;100195;-72
2022/03/28 10:23:46;;;;;;;9.50;5.30;;;;;;;;;;4953788;28;100146;-71
2022/03/28 10:26:13;;;;;;;8.85;5.32;;;;;;;;;;4954280;28;100894;-73
2022/03/28 10:28:42;;;;;;;9.15;4.93;;;;;;;;;;4956065;28;103750;-72
2022/03/28 10:31:15;;;;;;;7.30;4.55;;;;;;;;;;4922126;28;100205;-72
2022/03/28 10:34:02;;;;;;;9.25;4.95;;;;;;;;;;4957424;28;100242;-72
2022/03/28 10:36:32;;;;;;;8.32;4.63;;;;;;;;;;4936492;28;100546;-72
2022/03/28 10:39:34;;;;;;;8.10;5.05;;;;;;;;;;4953773;28;102299;-73
2022/03/28 10:42:24;;;;;;;9.38;5.22;;;;;;;;;;4954394;28;100169;-72
2022/03/28 10:45:01;;;;;;;8.55;5.32;;;;;;;;;;4971494;28;100149;-72
2022/03/28 10:47:40;;;;;;;8.15;4.78;;;;;;;;;;4953770;28;100763;-72
2022/03/28 10:50:12;;;;;;;8.85;5.53;;;;;;;;;;4970119;28;101724;-71
2022/03/28 10:53:02;;;;;;;8.52;4.75;;;;;;;;;;4939830;28;100217;-72
2022/03/28 10:55:41;;;;;;;10.88;5.70;;;;;;;;;;4957883;28;100130;-71
2022/03/28 10:58:13;;;;;;;9.18;5.95;;;;;;;;;;4926316;28;100825;-71
2022/03/28 11:01:11;;;;;;;13.27;5.18;;;;;;;;;;4959999;28;100606;-73
2022/03/28 11:03:41;;;;;;;9.75;5.38;;;;;;;;;;4964265;28;100307;-72
2022/03/28 11:06:09;;;;;;;11.63;5.72;;;;;;;;;;4974575;28;100116;-72
2022/03/28 11:08:42;;;;;;;9.93;5.22;;;;;;;;;;4941972;28;100299;-72
2022/03/28 11:11:24;;;;;;;13.07;5.22;;;;;;;;;;4974341;28;101095;-72
2022/03/28 11:14:10;;;;;;;11.48;4.72;;;;;;;;;;4958124;28;100268;-72
2022/03/28 11:16:53;;;;;;;10.27;5.18;;;;;;;;;;4959370;28;100133;-72
2022/03/28 11:19:25;;;;;;;10.15;4.90;;;;;;;;;;4974710;28;100334;-72
2022/03/28 11:22:04;;;;;;;8.85;4.88;;;;;;;;;;4977924;28;100777;-72
2022/03/28 11:24:40;;;;;;;23.45;6.22;;;;;;;;;;4957040;28;100181;-72
2022/03/28 11:27:13;;;;;;;18.67;5.63;;;;;;;;;;4974190;28;101976;-72
2022/03/28 11:29:41;;;;;;;8.73;5.30;;;;;;;;;;4972663;28;101102;-72
2022/03/28 11:32:08;;;;;;;11.55;5.43;;;;;;;;;;4956481;28;100566;-72
2022/03/28 11:34:35;;;;;;;11.25;4.78;;;;;;;;;;4956905;28;100506;-72
2022/03/28 11:37:03;;;;;;;12.27;5.35;;;;;;;;;;4956995;28;100567;-73
2022/03/28 11:39:31;;;;;;;9.20;5.40;;;;;;;;;;4973521;28;100741;-72
2022/03/28 11:41:58;;;;;;;10.90;4.85;;;;;;;;;;4976856;28;100977;-72
2022/03/28 11:44:25;;;;;;;12.85;5.38;;;;;;;;;;4973364;28;100155;-72
2022/03/28 11:46:57;;;;;;;10.82;5.28;;;;;;;;;;4940441;28;100135;-72
2022/03/28 11:49:26;;;;;;;9.15;4.18;;;;;;;;;;4940129;28;100386;-73
2022/03/28 11:51:53;;;;;;;9.02;5.10;;;;;;;;;;4957804;28;100551;-73
2022/03/28 11:54:20;;;;;;;10.90;5.38;;;;;;;;;;4973682;28;100127;-72
2022/03/28 11:59:41;;;;;;;11.55;5.15;;;;;;;;;;4959140;28;100649;-72
2022/03/28 12:02:08;;;;;;;9.23;5.25;;;;;;;;;;4973835;28;100538;-72
2022/03/28 12:04:45;;;;;;;11.23;5.38;;;;;;;;;;4973668;28;100248;-73
2022/03/28 12:07:12;;;;;;;10.95;5.25;;;;;;;;;;4973011;28;100120;-72
2022/03/28 12:09:41;;;;;;;10.38;5.10;;;;;;;;;;4955632;28;101428;-72
2022/03/28 12:12:09;;;;;;;7.57;4.63;;;;;;;;;;4974586;28;100616;-72
2022/03/28 12:14:42;;;;;;;44.25;6.70;;;;;;;;;;4976201;28;100691;-72
2022/03/28 12:17:10;;;;;;;13.95;5.88;;;;;;;;;;4957779;28;100155;-73
2022/03/28 12:19:37;;;;;;;8.68;5.03;;;;;;;;;;4940491;28;102474;-72
2022/03/28 12:22:16;;;;;;;13.27;5.50;;;;;;;;;;4955743;28;100827;-72
2022/03/28 12:24:53;;;;;;;12.50;5.07;;;;;;;;;;4956750;28;100118;-72
2022/03/28 12:27:20;;;;;;;8.52;4.72;;;;;;;;;;4940389;28;100197;-73
2022/03/28 12:29:50;;;;;;;12.48;5.57;;;;;;;;;;4926366;28;100479;-73
2022/03/28 12:32:17;;;;;;;8.40;4.57;;;;;;;;;;4958705;28;100602;-73
2022/03/28 12:34:45;;;;;;;11.30;5.07;;;;;;;;;;4972179;28;100212;-73
2022/03/28 12:37:15;;;;;;;11.25;4.57;;;;;;;;;;4955897;28;100145;-73
2022/03/28 12:39:43;;;;;;;8.43;4.20;;;;;;;;;;4971862;28;101112;-71
2022/03/28 12:42:24;;;;;;;12.35;4.50;;;;;;;;;;4958596;28;100749;-72
2022/03/28 12:44:54;;;;;;;8.52;4.65;;;;;;;;;;4940368;28;100828;-73
2022/03/28 12:47:25;;;;;;;8.23;4.55;;;;;;;;;;4956492;28;100052;-73
2022/03/28 12:49:53;;;;;;;9.65;4.70;;;;;;;;;;4973209;28;100354;-71
2022/03/28 12:52:24;;;;;;;8.93;4.60;;;;;;;;;;4939983;28;100596;-72
2022/03/28 12:54:55;;;;;;;6.13;3.95;;;;;;;;;;4956927;28;100091;-71
2022/03/28 12:57:27;;;;;;;6.95;4.00;;;;;;;;;;4968234;28;101049;-72
2022/03/28 12:59:54;;;;;;;8.10;4.03;;;;;;;;;;4955521;28;100291;-72
2022/03/28 13:02:21;;;;;;;6.25;4.03;;;;;;;;;;4939491;28;100990;-72
2022/03/28 13:04:53;;;;;;;11.70;4.63;;;;;;;;;;4973326;28;100252;-72
2022/03/28 13:07:28;;;;;;;8.30;4.25;;;;;;;;;;4971494;28;100042;-72
2022/03/28 13:10:00;;;;;;;7.57;4.30;;;;;;;;;;4971417;28;100461;-73
2022/03/28 13:12:40;;;;;;;7.05;4.20;;;;;;;;;;4940478;28;100604;-71
2022/03/28 13:15:16;;;;;;;7.45;4.53;;;;;;;;;;4938929;28;100143;-71
2022/03/28 13:17:48;;;;;;;8.25;3.85;;;;;;;;;;4958339;28;100088;-71
2022/03/28 13:20:22;;;;;;;8.15;4.03;;;;;;;;;;4939996;28;101172;-71
2022/03/28 13:22:51;;;;;;;7.25;3.67;;;;;;;;;;4939475;28;100636;-71
2022/03/28 13:25:20;;;;;;;6.93;4.13;;;;;;;;;;4922594;28;100144;-72
2022/03/28 13:28:09;;;;;;;12.00;4.00;;;;;;;;;;4954581;28;100369;-71
2022/03/28 13:30:39;;;;;;;8.23;3.92;;;;;;;;;;4956369;28;100285;-72
2022/03/28 13:33:06;;;;;;;6.72;3.50;;;;;;;;;;4972112;28;100628;-73
2022/03/28 13:35:33;;;;;;;8.00;3.85;;;;;;;;;;4954804;28;100254;-72
2022/03/28 13:38:04;;;;;;;5.80;3.95;;;;;;;;;;4972227;28;100389;-72
2022/03/28 13:40:32;;;;;;;5.50;3.53;;;;;;;;;;4938262;28;100417;-74
2022/03/28 13:42:59;;;;;;;6.97;3.53;;;;;;;;;;4938607;28;100592;-72
2022/03/28 13:45:29;;;;;;;7.22;3.70;;;;;;;;;;4971751;28;100084;-72
2022/03/28 13:47:57;;;;;;;6.18;3.58;;;;;;;;;;4955296;28;100174;-72
2022/03/28 13:50:24;;;;;;;6.93;3.70;;;;;;;;;;4937748;28;100363;-72
2022/03/28 13:53:12;;;;;;;7.53;3.33;;;;;;;;;;4968896;28;100812;-72
2022/03/28 13:55:39;;;;;;;7.47;3.40;;;;;;;;;;4942571;28;100364;-72
2022/03/28 13:58:09;;;;;;;9.45;3.70;;;;;;;;;;4938791;28;100197;-72
2022/03/28 14:00:36;;;;;;;6.47;3.83;;;;;;;;;;4971420;28;101533;-72
2022/03/28 14:03:08;;;;;;;7.68;3.95;;;;;;;;;;4918018;28;100939;-72
2022/03/28 14:05:36;;;;;;;8.07;4.20;;;;;;;;;;4952157;28;99950;-73
2022/03/28 14:08:03;;;;;;;6.78;3.95;;;;;;;;;;4952092;28;99957;-75
2022/03/28 14:10:30;;;;;;;6.60;4.05;;;;;;;;;;4950542;28;101223;-72
2022/03/28 14:12:57;;;;;;;6.65;4.18;;;;;;;;;;4950964;28;100571;-72
2022/03/28 14:15:24;;;;;;;8.65;4.25;;;;;;;;;;4952026;28;100091;-71
2022/03/28 14:17:51;;;;;;;8.50;4.25;;;;;;;;;;4950102;28;100246;-72
2022/03/28 14:20:19;;;;;;;6.47;4.50;;;;;;;;;;4953261;28;100915;-72
2022/03/28 14:22:46;;;;;;;6.50;4.05;;;;;;;;;;4950727;28;100808;-72
2022/03/28 14:25:13;;;;;;;7.68;4.40;;;;;;;;;;4934168;28;100219;-72
2022/03/28 14:27:40;;;;;;;6.95;4.32;;;;;;;;;;4935929;28;100244;-72
2022/03/28 14:30:08;;;;;;;6.10;3.63;;;;;;;;;;4933756;28;100399;-72
2022/03/28 14:32:35;;;;;;;8.00;4.03;;;;;;;;;;4951557;28;100576;-72
2022/03/28 14:35:06;;;;;;;6.93;4.13;;;;;;;;;;4935060;28;100545;-72
2022/03/28 14:37:34;;;;;;;8.20;3.85;;;;;;;;;;4954052;28;100234;-71